Time;durP1;ratioP1;P1;durP2;ratioP2;P2;SDS_P1;SDS_P2;PMS_P1;PMS_P2;Temp;Humidity;BMP_temperature;BMP_pressure;BME280_temperature;BME280_humidity;BME280_pressure;Samples;Min_cycle;Max_cycle;Signal;HPM_P1;HPM_P2
2022/06/02 00:02:36;;;;;;;2.75;1.60;;;;;;;;;;6155483;23;20076;-89
2022/06/02 00:05:26;;;;;;;2.42;1.60;;;;;;;;;;6155635;23;20010;-90
2022/06/02 00:08:14;;;;;;;2.65;1.52;;;;;;;;;;6156063;23;20084;-88
2022/06/02 00:11:02;;;;;;;2.72;1.80;;;;;;;;;;6155163;23;20031;-90
2022/06/02 00:14:04;;;;;;;2.65;1.73;;;;;;;;;;6155740;23;20006;-90
2022/06/02 00:16:48;;;;;;;2.83;1.67;;;;;;;;;;6043285;23;20098;-85
2022/06/02 00:19:44;;;;;;;4.10;1.90;;;;;;;;;;6147242;23;20009;-89
2022/06/02 00:22:31;;;;;;;2.88;1.73;;;;;;;;;;6103970;23;20017;-90
2022/06/02 00:25:00;;;;;;;6.25;2.10;;;;;;;;;;6155509;23;20096;-90
2022/06/02 00:27:50;;;;;;;2.55;1.60;;;;;;;;;;6155812;23;20029;-87
2022/06/02 00:30:28;;;;;;;3.05;1.77;;;;;;;;;;6155750;23;20006;-89
2022/06/02 00:32:59;;;;;;;3.30;1.92;;;;;;;;;;6155697;23;20005;-89
2022/06/02 00:35:32;;;;;;;4.70;2.00;;;;;;;;;;6155782;23;20002;-88
2022/06/02 00:37:59;;;;;;;2.22;1.83;;;;;;;;;;6155572;23;20009;-87
2022/06/02 00:43:47;;;;;;;2.70;2.00;;;;;;;;;;6187631;23;20040;-88
2022/06/02 00:49:26;;;;;;;2.60;1.80;;;;;;;;;;6186812;23;20116;-90
2022/06/02 00:52:04;;;;;;;2.17;1.70;;;;;;;;;;6160979;23;20067;-90
2022/06/02 00:57:52;;;;;;;3.27;1.70;;;;;;;;;;6186558;23;20109;-88
2022/06/02 01:00:25;;;;;;;3.85;2.10;;;;;;;;;;6160460;23;20485;-91
2022/06/02 01:02:53;;;;;;;3.00;2.00;;;;;;;;;;6160686;23;20092;-88
2022/06/02 01:05:32;;;;;;;3.63;1.70;;;;;;;;;;6160433;23;20423;-88
2022/06/02 01:08:22;;;;;;;3.35;1.92;;;;;;;;;;6160821;23;20016;-88
2022/06/02 01:11:12;;;;;;;2.40;1.65;;;;;;;;;;6160540;23;20012;-88
2022/06/02 01:13:51;;;;;;;3.50;1.73;;;;;;;;;;6160486;23;20051;-88
2022/06/02 01:16:20;;;;;;;2.50;1.80;;;;;;;;;;6160858;23;20001;-87
2022/06/02 01:19:05;;;;;;;3.47;1.92;;;;;;;;;;6162435;23;20009;-90
2022/06/02 01:21:50;;;;;;;2.97;1.63;;;;;;;;;;6162048;23;20064;-88
2022/06/02 01:24:26;;;;;;;2.90;1.60;;;;;;;;;;6162135;23;20001;-87
2022/06/02 01:27:27;;;;;;;3.33;2.00;;;;;;;;;;6161633;23;20088;-87
2022/06/02 01:30:16;;;;;;;2.80;1.70;;;;;;;;;;6162484;23;20072;-86
2022/06/02 01:32:58;;;;;;;8.43;1.95;;;;;;;;;;6188502;23;20012;-89
2022/06/02 01:35:33;;;;;;;2.22;1.58;;;;;;;;;;6163237;23;20009;-88
2022/06/02 01:38:00;;;;;;;2.15;1.50;;;;;;;;;;6162334;23;20387;-91
2022/06/02 01:40:42;;;;;;;2.67;1.55;;;;;;;;;;6162224;23;20065;-87
2022/06/02 01:43:17;;;;;;;3.75;1.80;;;;;;;;;;6162569;23;20394;-91
2022/06/02 01:45:52;;;;;;;3.20;1.67;;;;;;;;;;6162037;23;20415;-87
2022/06/02 01:48:44;;;;;;;2.28;1.50;;;;;;;;;;6162452;23;20009;-88
2022/06/02 01:51:26;;;;;;;2.85;1.70;;;;;;;;;;6152427;23;20009;-89
2022/06/02 01:54:11;;;;;;;2.33;1.50;;;;;;;;;;6164312;23;20067;-90
2022/06/02 01:57:02;;;;;;;2.63;1.80;;;;;;;;;;6162068;23;20009;-89
2022/06/02 01:59:34;;;;;;;5.72;1.95;;;;;;;;;;6161900;23;20009;-89
2022/06/02 02:15:49;;;;;;;2.80;1.83;;;;;;;;;;6188207;23;20032;-86
2022/06/02 02:18:37;;;;;;;3.10;1.95;;;;;;;;;;6161875;23;20489;-89
2022/06/02 02:21:28;;;;;;;2.60;1.95;;;;;;;;;;6165987;23;20009;-89
2022/06/02 02:23:58;;;;;;;2.13;1.73;;;;;;;;;;6161660;23;20012;-90
2022/06/02 02:29:33;;;;;;;3.40;1.90;;;;;;;;;;6155601;23;20093;-88
2022/06/02 02:32:12;;;;;;;2.97;1.90;;;;;;;;;;6131122;23;20005;-91
2022/06/02 02:34:58;;;;;;;3.28;1.88;;;;;;;;;;6131222;23;20006;-86
2022/06/02 02:37:32;;;;;;;5.18;1.73;;;;;;;;;;6131525;23;20013;-90
2022/06/02 02:39:58;;;;;;;2.40;1.60;;;;;;;;;;6131022;23;20346;-86
2022/06/02 02:42:24;;;;;;;3.60;2.03;;;;;;;;;;6131082;23;20100;-90
2022/06/02 02:45:11;;;;;;;2.88;1.90;;;;;;;;;;6131209;23;20001;-91
2022/06/02 02:47:37;;;;;;;2.20;1.70;;;;;;;;;;6115754;23;20167;-88
2022/06/02 02:50:07;;;;;;;2.78;1.77;;;;;;;;;;6130625;23;20006;-87
2022/06/02 02:52:52;;;;;;;2.50;1.75;;;;;;;;;;6130964;23;20037;-87
2022/06/02 02:55:21;;;;;;;2.25;1.70;;;;;;;;;;6130936;23;20035;-89
2022/06/02 02:57:54;;;;;;;3.22;1.80;;;;;;;;;;6151330;23;20004;-88
2022/06/02 03:00:33;;;;;;;3.42;1.88;;;;;;;;;;6161774;23;20001;-93
2022/06/02 03:03:12;;;;;;;3.55;1.85;;;;;;;;;;6161526;23;20020;-90
2022/06/02 03:05:48;;;;;;;2.47;1.80;;;;;;;;;;6165092;23;20013;-90
2022/06/02 03:08:32;;;;;;;2.90;1.90;;;;;;;;;;6161688;23;20005;-90
2022/06/02 03:11:07;;;;;;;3.35;1.90;;;;;;;;;;6161268;23;20084;-90
2022/06/02 03:13:38;;;;;;;2.17;1.73;;;;;;;;;;6162055;23;20005;-89
2022/06/02 03:16:09;;;;;;;2.72;1.80;;;;;;;;;;6161468;23;20025;-89
2022/06/02 03:18:48;;;;;;;2.30;1.70;;;;;;;;;;6164991;23;20001;-89
2022/06/02 03:21:21;;;;;;;4.43;1.75;;;;;;;;;;6178541;23;20013;-88
2022/06/02 03:24:06;;;;;;;2.80;1.88;;;;;;;;;;6171098;23;20423;-89
2022/06/02 03:26:47;;;;;;;5.72;2.10;;;;;;;;;;6162197;23;20009;-88
2022/06/02 03:29:22;;;;;;;3.58;1.80;;;;;;;;;;6162086;23;20008;-87
2022/06/02 03:31:56;;;;;;;6.75;2.17;;;;;;;;;;6163555;23;20056;-92
2022/06/02 03:34:34;;;;;;;3.10;1.90;;;;;;;;;;6186145;23;20009;-90
2022/06/02 03:37:20;;;;;;;4.95;2.00;;;;;;;;;;6166624;23;20032;-89
2022/06/02 03:39:56;;;;;;;4.07;2.30;;;;;;;;;;6160802;23;20055;-88
2022/06/02 03:42:31;;;;;;;5.95;2.20;;;;;;;;;;6161498;23;20679;-90
2022/06/02 03:45:19;;;;;;;9.00;2.45;;;;;;;;;;6164922;23;20068;-89
2022/06/02 03:47:52;;;;;;;4.18;2.05;;;;;;;;;;6163180;23;20004;-87
2022/06/02 03:50:19;;;;;;;;;;;;;;;;;;6161647;23;20008;-91
2022/06/02 03:53:11;;;;;;;4.88;2.45;;;;;;;;;;6161069;23;19907;-89
2022/06/02 03:55:52;;;;;;;6.30;2.55;;;;;;;;;;6161753;23;20017;-90
2022/06/02 03:58:21;;;;;;;7.22;2.53;;;;;;;;;;6161047;23;20009;-91
2022/06/02 04:01:03;;;;;;;4.28;2.20;;;;;;;;;;6160703;23;20342;-92
2022/06/02 04:03:48;;;;;;;3.95;2.00;;;;;;;;;;6160900;23;20017;-90
2022/06/02 04:06:36;;;;;;;4.65;2.20;;;;;;;;;;6160971;23;20009;-88
2022/06/02 04:09:07;;;;;;;4.43;2.60;;;;;;;;;;6160894;23;20001;-91
2022/06/02 04:14:47;;;;;;;4.70;2.87;;;;;;;;;;6182862;23;20019;-90
2022/06/02 04:17:31;;;;;;;6.55;3.17;;;;;;;;;;6130744;23;20247;-89
2022/06/02 04:22:57;;;;;;;4.28;2.67;;;;;;;;;;6157075;23;20076;-91
2022/06/02 04:25:42;;;;;;;3.83;3.03;;;;;;;;;;6131414;23;20033;-91
2022/06/02 04:28:13;;;;;;;4.93;3.33;;;;;;;;;;6131370;23;20346;-89
2022/06/02 04:31:01;;;;;;;2.75;2.30;;;;;;;;;;6132354;23;20387;-84
2022/06/02 04:33:50;;;;;;;3.35;2.40;;;;;;;;;;6135301;23;20012;-89
2022/06/02 04:36:33;;;;;;;3.58;1.85;;;;;;;;;;6156836;23;20070;-89
2022/06/02 04:39:10;;;;;;;2.25;1.60;;;;;;;;;;6130581;23;20010;-84
2022/06/02 04:41:53;;;;;;;3.03;1.50;;;;;;;;;;6130541;23;20014;-88
2022/06/02 04:44:22;;;;;;;1.98;1.33;;;;;;;;;;6130478;23;20005;-88
2022/06/02 04:46:55;;;;;;;1.80;1.20;;;;;;;;;;6130506;23;20449;-86
2022/06/02 04:49:32;;;;;;;2.55;1.08;;;;;;;;;;6130922;23;20032;-87
2022/06/02 04:52:17;;;;;;;3.85;1.00;;;;;;;;;;6131603;23;20041;-91
2022/06/02 04:55:02;;;;;;;2.53;0.90;;;;;;;;;;6132497;23;20025;-87
2022/06/02 04:57:35;;;;;;;1.48;0.68;;;;;;;;;;6132340;23;20009;-82
2022/06/02 05:00:12;;;;;;;2.28;0.80;;;;;;;;;;6132100;23;20005;-85
2022/06/02 05:02:49;;;;;;;2.58;0.80;;;;;;;;;;6132640;23;20071;-90
2022/06/02 05:05:24;;;;;;;1.83;0.70;;;;;;;;;;6132513;23;20013;-94
2022/06/02 05:08:12;;;;;;;1.00;0.50;;;;;;;;;;6132455;23;20006;-94
2022/06/02 05:10:39;;;;;;;2.80;0.65;;;;;;;;;;6131977;23;20089;-93
2022/06/02 05:13:11;;;;;;;3.17;0.80;;;;;;;;;;6131959;23;20005;-87
2022/06/02 05:16:00;;;;;;;1.52;0.73;;;;;;;;;;6145498;23;20025;-89
2022/06/02 05:18:44;;;;;;;1.77;0.63;;;;;;;;;;6146630;23;20005;-87
2022/06/02 05:21:29;;;;;;;1.40;0.50;;;;;;;;;;6158402;23;20014;-87
2022/06/02 05:24:06;;;;;;;1.25;0.50;;;;;;;;;;6158387;23;20454;-94
2022/06/02 05:26:45;;;;;;;1.33;0.73;;;;;;;;;;6156593;23;20084;-91
2022/06/02 05:29:30;;;;;;;2.47;0.88;;;;;;;;;;6157222;23;20474;-88
2022/06/02 05:32:01;;;;;;;1.90;0.70;;;;;;;;;;6156730;23;20010;-90
2022/06/02 05:34:46;;;;;;;1.20;0.70;;;;;;;;;;6157539;23;20009;-87
2022/06/02 05:37:26;;;;;;;2.20;0.68;;;;;;;;;;6157336;23;20092;-87
2022/06/02 05:40:14;;;;;;;1.83;0.77;;;;;;;;;;6157695;23;20001;-92
2022/06/02 05:43:00;;;;;;;2.60;0.75;;;;;;;;;;6156879;23;20341;-91
2022/06/02 05:45:39;;;;;;;2.47;0.65;;;;;;;;;;6156641;23;19997;-94
2022/06/02 05:48:05;;;;;;;2.58;0.90;;;;;;;;;;6157583;23;20012;-85
2022/06/02 05:50:34;;;;;;;2.83;0.90;;;;;;;;;;6157075;23;20491;-89
2022/06/02 05:53:08;;;;;;;4.35;1.63;;;;;;;;;;6156629;23;20060;-86
2022/06/02 05:56:06;;;;;;;2.88;1.85;;;;;;;;;;6156405;23;20016;-89
2022/06/02 05:59:05;;;;;;;4.72;1.67;;;;;;;;;;6156242;23;20435;-87
2022/06/02 06:01:52;;;;;;;2.88;1.60;;;;;;;;;;6039715;23;20015;-90
2022/06/02 06:04:33;;;;;;;1.98;1.15;;;;;;;;;;6051168;23;20037;-91
2022/06/02 06:07:09;;;;;;;3.03;1.05;;;;;;;;;;6155922;23;20009;-84
2022/06/02 06:09:54;;;;;;;4.00;1.20;;;;;;;;;;6156421;23;20339;-88
2022/06/02 06:12:55;;;;;;;3.15;1.15;;;;;;;;;;6156042;23;20327;-86
2022/06/02 06:15:40;;;;;;;2.05;0.90;;;;;;;;;;6155248;23;20849;-87
2022/06/02 06:18:27;;;;;;;2.85;1.00;;;;;;;;;;6154459;23;20060;-84
2022/06/02 06:21:08;;;;;;;2.55;1.02;;;;;;;;;;6156061;23;20482;-87
2022/06/02 06:23:52;;;;;;;3.38;0.88;;;;;;;;;;6155834;23;20080;-87
2022/06/02 06:26:18;;;;;;;3.72;0.80;;;;;;;;;;6155958;23;20019;-86
2022/06/02 06:28:51;;;;;;;2.08;0.80;;;;;;;;;;6156929;23;20079;-86
2022/06/02 06:31:18;;;;;;;4.28;1.13;;;;;;;;;;6161713;23;20427;-85
2022/06/02 06:34:02;;;;;;;3.05;1.10;;;;;;;;;;6154191;23;20002;-87
2022/06/02 06:36:28;;;;;;;3.90;1.52;;;;;;;;;;6156062;23;20427;-86
2022/06/02 06:39:14;;;;;;;3.65;1.40;;;;;;;;;;6155530;23;20013;-87
2022/06/02 06:41:54;;;;;;;3.65;1.50;;;;;;;;;;6155674;23;20021;-83
2022/06/02 06:44:41;;;;;;;2.00;1.33;;;;;;;;;;6161401;23;20002;-92
2022/06/02 06:47:25;;;;;;;2.95;1.40;;;;;;;;;;6168185;23;20021;-94
2022/06/02 06:49:54;;;;;;;;;;;;;;;;;;6157383;23;20324;-94
2022/06/02 06:52:20;;;;;;;3.13;1.60;;;;;;;;;;6160248;23;19907;-85
2022/06/02 06:54:54;;;;;;;4.68;1.80;;;;;;;;;;6161715;23;20001;-83
2022/06/02 06:57:42;;;;;;;3.05;1.20;;;;;;;;;;6190408;22;20032;-83
2022/06/02 07:00:19;;;;;;;4.13;2.03;;;;;;;;;;6191394;23;20012;-94
2022/06/02 07:02:57;;;;;;;3.58;1.83;;;;;;;;;;6203572;23;20008;-89
2022/06/02 07:05:36;;;;;;;2.92;1.70;;;;;;;;;;6217844;23;20016;-96
2022/06/02 07:08:03;;;;;;;3.33;1.70;;;;;;;;;;6197138;23;20013;-85
2022/06/02 07:10:58;;;;;;;4.85;1.80;;;;;;;;;;6193055;23;20012;-88
2022/06/02 07:13:37;;;;;;;5.80;1.60;;;;;;;;;;6174075;23;20080;-94
2022/06/02 07:16:28;;;;;;;2.50;1.70;;;;;;;;;;6184987;23;20021;-86
2022/06/02 07:36:12;;;;;;;3.85;1.92;;;;;;;;;;6194121;23;20335;-88
2022/06/02 07:38:57;;;;;;;3.80;2.42;;;;;;;;;;6132319;23;20013;-95
2022/06/02 07:41:23;;;;;;;3.90;2.25;;;;;;;;;;6128911;23;20017;-78
2022/06/02 07:44:08;;;;;;;3.88;2.30;;;;;;;;;;6129950;23;20342;-80
2022/06/02 07:46:53;;;;;;;3.55;1.90;;;;;;;;;;6155068;23;20005;-79
2022/06/02 07:49:19;;;;;;;4.35;2.03;;;;;;;;;;6130666;23;20036;-83
2022/06/02 07:51:51;;;;;;;2.85;1.80;;;;;;;;;;6156745;23;20005;-88
2022/06/02 07:54:35;;;;;;;7.65;1.70;;;;;;;;;;6130240;23;20005;-86
2022/06/02 07:57:27;;;;;;;2.90;1.48;;;;;;;;;;6130358;23;20005;-87
2022/06/02 08:00:03;;;;;;;2.40;1.75;;;;;;;;;;6156518;23;20001;-93
2022/06/02 08:02:29;;;;;;;3.63;1.90;;;;;;;;;;6156635;23;20017;-82
2022/06/02 08:05:01;;;;;;;2.78;1.60;;;;;;;;;;6156577;23;20031;-85
2022/06/02 08:07:33;;;;;;;1.95;1.38;;;;;;;;;;6130628;23;20032;-79
2022/06/02 08:10:11;;;;;;;2.38;1.80;;;;;;;;;;6130408;23;20005;-79
2022/06/02 08:12:40;;;;;;;2.00;1.10;;;;;;;;;;6130373;23;20010;-84
2022/06/02 08:18:11;;;;;;;5.38;1.70;;;;;;;;;;6258245;22;20327;-95
2022/06/02 08:20:43;;;;;;;2.58;1.60;;;;;;;;;;6230855;23;20461;-86
2022/06/02 08:26:38;;;;;;;3.25;1.40;;;;;;;;;;6155488;23;20009;-95
2022/06/02 08:29:42;;;;;;;2.17;1.40;;;;;;;;;;6149528;23;20015;-86
2022/06/02 08:32:30;;;;;;;2.30;1.30;;;;;;;;;;6073811;23;20002;-85
2022/06/02 08:35:17;;;;;;;1.80;1.05;;;;;;;;;;6077151;23;20010;-96
2022/06/02 08:37:59;;;;;;;3.63;1.40;;;;;;;;;;6076138;23;20018;-94
2022/06/02 08:40:37;;;;;;;1.92;1.20;;;;;;;;;;6075061;23;20076;-82
2022/06/02 08:43:21;;;;;;;1.90;1.00;;;;;;;;;;6120324;23;20008;-86
2022/06/02 08:45:49;;;;;;;2.53;0.93;;;;;;;;;;6224085;23;20078;-81
2022/06/02 08:48:27;;;;;;;2.88;1.10;;;;;;;;;;6221779;23;20004;-87
2022/06/02 08:51:11;;;;;;;2.22;1.30;;;;;;;;;;6222101;23;20008;-83
2022/06/02 08:53:57;;;;;;;3.55;0.90;;;;;;;;;;6224297;23;20000;-86
2022/06/02 08:56:36;;;;;;;2.55;1.23;;;;;;;;;;6221605;23;20031;-85
2022/06/02 08:59:21;;;;;;;5.22;1.20;;;;;;;;;;6224250;23;20084;-88
2022/06/02 09:02:06;;;;;;;2.08;0.90;;;;;;;;;;6221608;23;20334;-94
2022/06/02 09:04:45;;;;;;;2.45;1.00;;;;;;;;;;6222077;23;20062;-87
2022/06/02 09:07:29;;;;;;;4.75;0.88;;;;;;;;;;6222561;23;20004;-92
2022/06/02 09:10:08;;;;;;;2.47;1.00;;;;;;;;;;6221924;23;20000;-87
2022/06/02 09:12:53;;;;;;;2.33;0.88;;;;;;;;;;6222031;23;20015;-87
2022/06/02 09:15:25;;;;;;;2.05;0.90;;;;;;;;;;6222034;23;20396;-86
2022/06/02 09:18:07;;;;;;;1.88;1.10;;;;;;;;;;6221098;23;20028;-87
2022/06/02 09:20:33;;;;;;;2.75;1.10;;;;;;;;;;6222449;23;20027;-88
2022/06/02 09:23:05;;;;;;;3.10;1.10;;;;;;;;;;6222383;23;20374;-85
2022/06/02 09:25:58;;;;;;;3.70;1.08;;;;;;;;;;6221966;23;20009;-92
2022/06/02 09:28:33;;;;;;;2.97;1.13;;;;;;;;;;6222074;23;20004;-80
2022/06/02 09:31:06;;;;;;;2.05;1.05;;;;;;;;;;6221287;23;20004;-88
2022/06/02 09:33:37;;;;;;;2.25;0.90;;;;;;;;;;6221096;23;20341;-82
2022/06/02 09:36:03;;;;;;;3.42;0.98;;;;;;;;;;6221283;23;20004;-85
2022/06/02 09:38:30;;;;;;;1.45;0.95;;;;;;;;;;6220346;23;20008;-81
2022/06/02 09:41:22;;;;;;;2.10;0.80;;;;;;;;;;6247868;23;20006;-86
2022/06/02 09:43:58;;;;;;;2.55;1.08;;;;;;;;;;6215219;23;20043;-88
2022/06/02 09:46:48;;;;;;;3.08;0.80;;;;;;;;;;6220604;23;20031;-83
2022/06/02 09:49:30;;;;;;;3.40;0.70;;;;;;;;;;6221051;23;20000;-84
2022/06/02 09:52:02;;;;;;;3.70;0.80;;;;;;;;;;6220831;23;20000;-84
2022/06/02 09:54:44;;;;;;;1.75;0.80;;;;;;;;;;6220561;23;20008;-84
2022/06/02 09:57:55;;;;;;;1.25;0.60;;;;;;;;;;6220605;23;20000;-84
2022/06/02 10:00:24;;;;;;;3.25;0.75;;;;;;;;;;6072070;23;20011;-83
2022/06/02 10:03:09;;;;;;;3.78;0.90;;;;;;;;;;6076965;23;20015;-84
2022/06/02 10:05:58;;;;;;;4.10;1.00;;;;;;;;;;6171167;23;20000;-85
2022/06/02 10:08:44;;;;;;;1.52;0.60;;;;;;;;;;6220319;23;20012;-84
2022/06/02 10:11:16;;;;;;;1.60;0.70;;;;;;;;;;6220662;23;20422;-83
2022/06/02 10:14:00;;;;;;;3.25;0.70;;;;;;;;;;6220702;23;20005;-86
2022/06/02 10:16:30;;;;;;;1.20;0.65;;;;;;;;;;6220011;23;20048;-86
2022/06/02 10:19:07;;;;;;;2.80;0.90;;;;;;;;;;6220902;23;20001;-83
2022/06/02 10:21:52;;;;;;;1.95;0.75;;;;;;;;;;6220800;23;20019;-82
2022/06/02 10:24:29;;;;;;;3.40;0.90;;;;;;;;;;6247973;23;20329;-86
2022/06/02 10:27:21;;;;;;;2.00;0.80;;;;;;;;;;6220315;23;20036;-85
2022/06/02 10:29:55;;;;;;;3.38;0.80;;;;;;;;;;6247401;23;19997;-82
2022/06/02 10:32:33;;;;;;;2.28;0.77;;;;;;;;;;6222717;23;20019;-87
2022/06/02 10:35:18;;;;;;;3.63;0.80;;;;;;;;;;6223470;23;20004;-86
2022/06/02 10:38:06;;;;;;;2.58;0.75;;;;;;;;;;6222344;23;20026;-87
2022/06/02 10:43:58;;;;;;;1.60;0.90;;;;;;;;;;6247779;23;20081;-92
2022/06/02 10:46:52;;;;;;;2.45;0.65;;;;;;;;;;6218459;23;20445;-93
2022/06/02 10:49:40;;;;;;;2.33;0.80;;;;;;;;;;6221712;23;20000;-92
2022/06/02 10:52:25;;;;;;;2.55;1.00;;;;;;;;;;6222490;23;20000;-88
2022/06/02 10:54:57;;;;;;;4.15;0.90;;;;;;;;;;6223121;23;20024;-94
2022/06/02 10:57:43;;;;;;;1.92;1.00;;;;;;;;;;6221235;23;20004;-94
2022/06/02 11:00:32;;;;;;;2.17;1.00;;;;;;;;;;6247389;23;20365;-89
2022/06/02 11:03:08;;;;;;;1.95;0.80;;;;;;;;;;6221197;23;20342;-92
2022/06/02 11:05:40;;;;;;;2.60;0.80;;;;;;;;;;6222113;23;20031;-91
2022/06/02 11:08:15;;;;;;;1.92;0.90;;;;;;;;;;6228554;23;20004;-86
2022/06/02 11:11:18;;;;;;;2.38;1.05;;;;;;;;;;6224926;23;20004;-93
2022/06/02 11:13:53;;;;;;;2.00;0.82;;;;;;;;;;6210902;23;20015;-87
2022/06/02 11:16:26;;;;;;;3.58;0.90;;;;;;;;;;6222773;23;20050;-94
2022/06/02 11:19:05;;;;;;;3.78;1.20;;;;;;;;;;6226662;23;19996;-96
2022/06/02 11:21:53;;;;;;;3.00;1.15;;;;;;;;;;6195542;23;20070;-95
2022/06/02 11:24:31;;;;;;;2.40;1.13;;;;;;;;;;6191569;23;20064;-93
2022/06/02 11:26:57;;;;;;;2.70;1.33;;;;;;;;;;6201319;23;20008;-85
2022/06/02 11:29:26;;;;;;;4.50;1.13;;;;;;;;;;6198700;23;20005;-86
2022/06/02 11:35:21;;;;;;;3.10;1.20;;;;;;;;;;6230459;23;20048;-89
2022/06/02 11:41:16;;;;;;;4.10;1.38;;;;;;;;;;6211684;23;20060;-96
2022/06/02 11:46:50;;;;;;;2.78;1.30;;;;;;;;;;6165929;23;20024;-93
2022/06/02 11:49:22;;;;;;;4.10;1.70;;;;;;;;;;6167295;23;20309;-92
2022/06/02 11:52:10;;;;;;;2.53;1.40;;;;;;;;;;6196263;23;19985;-95
2022/06/02 11:55:07;;;;;;;3.65;1.30;;;;;;;;;;6190116;23;20005;-87
2022/06/02 11:57:45;;;;;;;2.55;1.40;;;;;;;;;;6147648;23;20088;-95
2022/06/02 12:00:30;;;;;;;3.50;1.50;;;;;;;;;;6161094;23;20009;-95
2022/06/02 12:03:22;;;;;;;3.78;1.30;;;;;;;;;;6161569;23;20048;-93
2022/06/02 12:06:09;;;;;;;4.18;1.67;;;;;;;;;;6162381;23;20001;-95
2022/06/02 12:08:44;;;;;;;3.58;1.60;;;;;;;;;;6163110;23;20028;-88
2022/06/02 12:11:29;;;;;;;3.17;1.65;;;;;;;;;;6164395;23;20437;-90
2022/06/02 12:13:55;;;;;;;3.38;1.42;;;;;;;;;;6161126;23;20008;-87
2022/06/02 12:16:30;;;;;;;3.90;1.35;;;;;;;;;;6165082;23;20037;-93
2022/06/02 12:18:59;;;;;;;2.13;1.10;;;;;;;;;;6163623;23;20013;-87
2022/06/02 12:24:42;;;;;;;2.67;1.40;;;;;;;;;;6252770;23;20011;-84
2022/06/02 12:27:37;;;;;;;3.78;1.38;;;;;;;;;;6223221;23;20337;-96
2022/06/02 12:30:16;;;;;;;2.10;1.40;;;;;;;;;;6196342;23;20135;-93
2022/06/02 12:33:01;;;;;;;5.10;1.30;;;;;;;;;;6220356;23;20028;-91
2022/06/02 12:35:44;;;;;;;1.83;1.23;;;;;;;;;;6221692;23;20004;-93
2022/06/02 12:38:19;;;;;;;1.98;1.30;;;;;;;;;;6219940;23;20092;-88
2022/06/02 12:41:01;;;;;;;3.75;1.27;;;;;;;;;;6222342;23;20004;-94
2022/06/02 12:43:27;;;;;;;3.77;1.40;;;;;;;;;;6221317;23;20100;-85
2022/06/02 12:45:58;;;;;;;3.75;1.40;;;;;;;;;;6222792;23;20234;-94
2022/06/02 12:48:24;;;;;;;2.55;1.33;;;;;;;;;;6220031;23;20062;-83
2022/06/02 12:50:51;;;;;;;3.13;1.48;;;;;;;;;;6219497;23;20372;-84
2022/06/02 12:53:17;;;;;;;3.38;1.55;;;;;;;;;;6246183;23;20414;-83
2022/06/02 12:55:44;;;;;;;3.78;1.38;;;;;;;;;;6219302;23;20015;-82
2022/06/02 12:58:26;;;;;;;3.38;1.10;;;;;;;;;;6219812;23;20028;-86
2022/06/02 13:01:14;;;;;;;3.57;1.53;;;;;;;;;;6244794;23;20015;-93
2022/06/02 13:03:52;;;;;;;2.25;1.20;;;;;;;;;;6221305;23;20433;-85
2022/06/02 13:06:37;;;;;;;3.78;1.33;;;;;;;;;;6221246;23;20047;-92
2022/06/02 13:09:22;;;;;;;3.38;1.35;;;;;;;;;;6220726;23;20056;-92
2022/06/02 13:11:48;;;;;;;4.13;1.50;;;;;;;;;;6220275;23;20062;-91
2022/06/02 13:14:33;;;;;;;2.05;1.33;;;;;;;;;;6223612;23;20008;-81
2022/06/02 13:16:59;;;;;;;3.17;1.60;;;;;;;;;;6227327;23;20008;-82
2022/06/02 13:22:19;;;;;;;3.28;1.50;;;;;;;;;;6270525;22;20027;-94
2022/06/02 13:25:07;;;;;;;5.82;1.52;;;;;;;;;;6264683;22;20012;-92
2022/06/02 13:28:00;;;;;;;3.97;1.30;;;;;;;;;;6260357;22;20003;-92
2022/06/02 13:30:30;;;;;;;3.83;1.65;;;;;;;;;;6255235;22;20004;-95
2022/06/02 13:33:27;;;;;;;;;;;;;;;;;;;;;
2022/06/02 13:36:04;;;;;;;4.20;1.35;;;;;;;;;;6280474;22;20481;-96
2022/06/02 13:38:43;;;;;;;4.18;1.63;;;;;;;;;;6253619;22;20008;-86
2022/06/02 13:41:28;;;;;;;2.67;1.65;;;;;;;;;;6282915;22;20001;-92
2022/06/02 13:44:01;;;;;;;2.63;1.52;;;;;;;;;;6253940;22;20069;-93
2022/06/02 13:46:34;;;;;;;5.22;1.50;;;;;;;;;;6253423;22;20340;-93
2022/06/02 13:49:26;;;;;;;2.53;1.30;;;;;;;;;;6256183;22;20011;-95
2022/06/02 13:52:15;;;;;;;3.83;1.50;;;;;;;;;;6253671;22;20000;-94
2022/06/02 13:58:03;;;;;;;2.72;1.40;;;;;;;;;;6279394;22;20149;-86
2022/06/02 14:00:32;;;;;;;2.63;1.40;;;;;;;;;;6252012;22;20004;-87
2022/06/02 14:03:05;;;;;;;2.55;1.20;;;;;;;;;;6251752;22;20464;-87
2022/06/02 14:05:44;;;;;;;4.25;1.65;;;;;;;;;;6252202;22;20073;-91
2022/06/02 14:08:29;;;;;;;4.68;1.58;;;;;;;;;;6251856;22;20095;-93
2022/06/02 14:11:08;;;;;;;2.78;1.20;;;;;;;;;;6252801;22;20079;-96
2022/06/02 14:13:34;;;;;;;2.03;1.20;;;;;;;;;;6254987;22;20015;-89
2022/06/02 14:16:19;;;;;;;4.28;1.40;;;;;;;;;;6252119;22;20433;-86
2022/06/02 14:18:45;;;;;;;3.40;1.30;;;;;;;;;;6252170;22;20008;-92
2022/06/02 14:21:30;;;;;;;2.45;1.45;;;;;;;;;;6251678;22;20023;-96
2022/06/02 14:24:15;;;;;;;5.10;1.40;;;;;;;;;;6251886;22;20015;-93
2022/06/02 14:27:03;;;;;;;2.97;1.38;;;;;;;;;;6251881;22;20503;-85
2022/06/02 14:29:29;;;;;;;3.03;1.35;;;;;;;;;;6254095;22;20417;-89
2022/06/02 14:32:37;;;;;;;;;;;;;;;;;;;;;
2022/06/02 14:35:13;;;;;;;2.65;1.33;;;;;;;;;;6203224;22;20023;-87
2022/06/02 14:37:39;;;;;;;3.35;1.48;;;;;;;;;;6255162;22;20008;-88
2022/06/02 14:40:43;;;;;;;2.80;1.55;;;;;;;;;;6252908;22;20053;-88
2022/06/02 14:43:29;;;;;;;2.40;1.50;;;;;;;;;;6135423;23;20045;-92
2022/06/02 14:46:08;;;;;;;3.60;1.40;;;;;;;;;;6272780;22;20483;-92
2022/06/02 14:48:43;;;;;;;2.55;1.48;;;;;;;;;;6256014;22;20004;-89
2022/06/02 14:51:13;;;;;;;4.07;1.40;;;;;;;;;;6251970;22;20023;-93
2022/06/02 14:53:45;;;;;;;2.35;1.30;;;;;;;;;;6252076;22;20074;-89
2022/06/02 14:56:29;;;;;;;2.80;1.20;;;;;;;;;;6252274;22;20014;-89
2022/06/02 14:59:14;;;;;;;2.38;1.30;;;;;;;;;;6253934;22;20035;-96
2022/06/02 15:01:44;;;;;;;5.03;1.52;;;;;;;;;;6253651;22;20456;-87
2022/06/02 15:04:28;;;;;;;3.42;1.30;;;;;;;;;;6255673;22;20087;-96
2022/06/02 15:07:12;;;;;;;3.80;1.30;;;;;;;;;;6263481;22;20006;-88
2022/06/02 15:12:48;;;;;;;2.28;1.45;;;;;;;;;;6220327;22;20027;-86
2022/06/02 15:24:27;;;;;;;4.13;1.30;;;;;;;;;;6188973;23;20116;-82
2022/06/02 15:27:28;;;;;;;2.80;1.33;;;;;;;;;;6207238;23;20044;-84
2022/06/02 15:29:55;;;;;;;12.45;4.10;;;;;;;;;;6102382;23;20002;-83
2022/06/02 15:32:40;;;;;;;5.45;1.80;;;;;;;;;;6189600;23;20005;-76
2022/06/02 15:35:21;;;;;;;6.05;1.40;;;;;;;;;;6212917;23;20000;-80
2022/06/02 15:37:47;;;;;;;1.80;1.30;;;;;;;;;;6215727;23;20004;-80
2022/06/02 15:40:25;;;;;;;4.10;1.50;;;;;;;;;;6215959;23;20001;-82
2022/06/02 15:43:12;;;;;;;2.50;1.40;;;;;;;;;;6206937;23;20565;-80
2022/06/02 15:45:58;;;;;;;2.45;1.27;;;;;;;;;;6239944;23;20001;-78
2022/06/02 15:48:43;;;;;;;2.35;1.42;;;;;;;;;;6215262;23;20430;-81
2022/06/02 15:51:28;;;;;;;7.25;1.70;;;;;;;;;;6213821;23;20004;-78
2022/06/02 15:54:20;;;;;;;4.65;1.50;;;;;;;;;;6216394;23;20027;-84
2022/06/02 15:56:46;;;;;;;5.60;1.70;;;;;;;;;;6214374;23;20010;-87
2022/06/02 15:59:31;;;;;;;3.22;1.50;;;;;;;;;;6216253;23;20083;-84
2022/06/02 16:02:23;;;;;;;4.35;1.38;;;;;;;;;;6214881;23;20008;-82
2022/06/02 16:05:03;;;;;;;3.13;1.63;;;;;;;;;;6169958;23;20079;-78
2022/06/02 16:07:48;;;;;;;2.28;1.50;;;;;;;;;;6215587;23;20000;-86
2022/06/02 16:13:34;;;;;;;2.85;1.45;;;;;;;;;;6221435;23;20346;-87
2022/06/02 16:16:03;;;;;;;2.22;1.40;;;;;;;;;;6215418;23;20087;-95
2022/06/02 16:18:32;;;;;;;5.22;1.50;;;;;;;;;;6215296;23;20067;-94
2022/06/02 16:21:17;;;;;;;2.45;1.50;;;;;;;;;;6215721;23;20012;-87
2022/06/02 16:23:55;;;;;;;2.42;1.40;;;;;;;;;;6215538;23;20017;-86
2022/06/02 16:26:46;;;;;;;3.30;1.70;;;;;;;;;;6216260;23;20386;-92
2022/06/02 16:29:31;;;;;;;3.17;1.30;;;;;;;;;;6221370;23;20012;-90
2022/06/02 16:32:16;;;;;;;3.08;1.50;;;;;;;;;;6215651;23;20004;-85
2022/06/02 16:34:42;;;;;;;2.20;1.30;;;;;;;;;;6214932;23;20065;-86
2022/06/02 16:37:23;;;;;;;3.45;1.25;;;;;;;;;;6216290;23;20020;-93
2022/06/02 16:39:58;;;;;;;2.90;1.48;;;;;;;;;;6215471;23;20445;-85
2022/06/02 16:42:55;;;;;;;2.75;1.42;;;;;;;;;;6215265;23;20013;-94
2022/06/02 16:45:21;;;;;;;2.30;1.45;;;;;;;;;;6215409;23;20008;-85
2022/06/02 16:47:47;;;;;;;3.13;1.40;;;;;;;;;;6216208;23;20307;-83
2022/06/02 16:50:41;;;;;;;2.35;1.50;;;;;;;;;;6217429;23;20063;-84
2022/06/02 17:13:00;;;;;;;2.83;1.60;;;;;;;;;;6188457;23;20457;-91
2022/06/02 17:24:45;;;;;;;3.97;1.55;;;;;;;;;;6188274;23;20104;-84
2022/06/02 17:30:21;;;;;;;2.78;1.60;;;;;;;;;;6188261;23;20012;-92
2022/06/02 17:33:06;;;;;;;2.55;1.67;;;;;;;;;;6186935;23;20075;-85
2022/06/02 17:38:55;;;;;;;3.17;1.60;;;;;;;;;;6143061;23;20058;-85
2022/06/02 17:41:48;;;;;;;6.97;1.67;;;;;;;;;;6185842;23;20569;-85
2022/06/02 17:44:26;;;;;;;2.60;1.50;;;;;;;;;;6143299;23;20076;-86
2022/06/02 17:47:29;;;;;;;5.43;1.80;;;;;;;;;;6189727;23;20032;-85
2022/06/02 17:50:02;;;;;;;4.93;1.90;;;;;;;;;;6186189;23;20005;-84
2022/06/02 17:52:28;;;;;;;2.22;1.60;;;;;;;;;;6186109;23;20001;-85
2022/06/02 17:55:01;;;;;;;5.53;1.52;;;;;;;;;;6186262;23;20788;-85
2022/06/02 17:57:27;;;;;;;;;;;;;;;;;;6186476;23;20029;-84
2022/06/02 18:00:18;;;;;;;2.83;1.85;;;;;;;;;;6187269;23;19900;-85
2022/06/02 18:02:54;;;;;;;2.10;1.60;;;;;;;;;;6185980;23;20347;-84
2022/06/02 18:05:39;;;;;;;2.70;1.45;;;;;;;;;;6186074;23;20008;-82
2022/06/02 18:08:32;;;;;;;3.72;1.52;;;;;;;;;;6185158;23;20006;-85